sensor_id;sensor_type;location;lat;lon;timestamp;temperature;humidity
44851;DHT22;30583;48.714;9.386;2023-04-25T00:02:25;11.80;66.20
44851;DHT22;30583;48.714;9.386;2023-04-25T00:04:50;11.70;66.70
44851;DHT22;30583;48.714;9.386;2023-04-25T00:07:17;11.80;66.40
44851;DHT22;30583;48.714;9.386;2023-04-25T00:09:43;11.70;66.60
44851;DHT22;30583;48.714;9.386;2023-04-25T00:12:08;11.90;66.30
44851;DHT22;30583;48.714;9.386;2023-04-25T00:14:34;11.90;66.10
44851;DHT22;30583;48.714;9.386;2023-04-25T00:17:01;11.90;66.30
44851;DHT22;30583;48.714;9.386;2023-04-25T00:19:26;11.90;66.40
44851;DHT22;30583;48.714;9.386;2023-04-25T00:21:57;12.20;66.00
44851;DHT22;30583;48.714;9.386;2023-04-25T00:24:22;12.00;66.00
44851;DHT22;30583;48.714;9.386;2023-04-25T00:26:48;11.80;66.80
44851;DHT22;30583;48.714;9.386;2023-04-25T00:29:14;11.90;66.40
44851;DHT22;30583;48.714;9.386;2023-04-25T00:31:40;11.90;66.40
44851;DHT22;30583;48.714;9.386;2023-04-25T00:34:06;11.90;66.50
44851;DHT22;30583;48.714;9.386;2023-04-25T00:36:33;11.90;66.00
44851;DHT22;30583;48.714;9.386;2023-04-25T00:38:59;11.60;66.80
44851;DHT22;30583;48.714;9.386;2023-04-25T00:41:25;11.90;66.50
44851;DHT22;30583;48.714;9.386;2023-04-25T00:43:52;12.20;65.50
44851;DHT22;30583;48.714;9.386;2023-04-25T00:46:19;11.60;66.80
44851;DHT22;30583;48.714;9.386;2023-04-25T00:48:44;11.60;67.40
44851;DHT22;30583;48.714;9.386;2023-04-25T00:51:15;11.70;67.20
44851;DHT22;30583;48.714;9.386;2023-04-25T00:53:41;11.30;67.40
44851;DHT22;30583;48.714;9.386;2023-04-25T00:56:07;11.30;67.70
44851;DHT22;30583;48.714;9.386;2023-04-25T00:58:33;11.70;66.60
44851;DHT22;30583;48.714;9.386;2023-04-25T01:00:59;11.70;66.10
44851;DHT22;30583;48.714;9.386;2023-04-25T01:03:25;11.90;65.90
44851;DHT22;30583;48.714;9.386;2023-04-25T01:05:54;11.70;66.80
44851;DHT22;30583;48.714;9.386;2023-04-25T01:08:21;12.00;66.00
44851;DHT22;30583;48.714;9.386;2023-04-25T01:10:47;11.80;66.30
44851;DHT22;30583;48.714;9.386;2023-04-25T01:13:12;11.70;66.90
44851;DHT22;30583;48.714;9.386;2023-04-25T01:15:38;12.10;65.80
44851;DHT22;30583;48.714;9.386;2023-04-25T01:18:05;12.00;65.90
44851;DHT22;30583;48.714;9.386;2023-04-25T01:20:32;12.20;65.60
44851;DHT22;30583;48.714;9.386;2023-04-25T01:22:58;12.20;65.20
44851;DHT22;30583;48.714;9.386;2023-04-25T01:25:24;12.10;65.50
44851;DHT22;30583;48.714;9.386;2023-04-25T01:27:50;11.70;67.20
44851;DHT22;30583;48.714;9.386;2023-04-25T01:30:16;12.00;66.50
44851;DHT22;30583;48.714;9.386;2023-04-25T01:32:42;12.00;66.40
44851;DHT22;30583;48.714;9.386;2023-04-25T01:35:10;11.80;66.80
44851;DHT22;30583;48.714;9.386;2023-04-25T01:37:45;11.60;67.10
44851;DHT22;30583;48.714;9.386;2023-04-25T01:40:12;11.70;67.20
44851;DHT22;30583;48.714;9.386;2023-04-25T01:42:40;11.70;67.30
44851;DHT22;30583;48.714;9.386;2023-04-25T01:45:07;11.90;66.10
44851;DHT22;30583;48.714;9.386;2023-04-25T01:47:33;12.00;66.30
44851;DHT22;30583;48.714;9.386;2023-04-25T01:50:01;11.80;66.90
44851;DHT22;30583;48.714;9.386;2023-04-25T01:52:27;11.80;66.50
44851;DHT22;30583;48.714;9.386;2023-04-25T01:54:53;12.00;66.60
44851;DHT22;30583;48.714;9.386;2023-04-25T01:57:19;11.90;67.40
44851;DHT22;30583;48.714;9.386;2023-04-25T01:59:45;11.70;68.30
44851;DHT22;30583;48.714;9.386;2023-04-25T02:02:11;11.70;67.80
44851;DHT22;30583;48.714;9.386;2023-04-25T02:04:37;11.80;67.10
44851;DHT22;30583;48.714;9.386;2023-04-25T02:07:03;11.70;67.60
44851;DHT22;30583;48.714;9.386;2023-04-25T02:09:29;11.90;66.90
44851;DHT22;30583;48.714;9.386;2023-04-25T02:11:55;12.00;67.00
44851;DHT22;30583;48.714;9.386;2023-04-25T02:14:20;11.90;68.00
44851;DHT22;30583;48.714;9.386;2023-04-25T02:16:47;11.90;67.70
44851;DHT22;30583;48.714;9.386;2023-04-25T02:19:12;11.90;67.40
44851;DHT22;30583;48.714;9.386;2023-04-25T02:21:38;11.90;67.90
44851;DHT22;30583;48.714;9.386;2023-04-25T02:24:04;12.00;67.80
44851;DHT22;30583;48.714;9.386;2023-04-25T02:26:30;11.70;68.60
44851;DHT22;30583;48.714;9.386;2023-04-25T02:28:56;11.60;68.40
44851;DHT22;30583;48.714;9.386;2023-04-25T02:31:22;11.70;68.50
44851;DHT22;30583;48.714;9.386;2023-04-25T02:33:48;11.60;69.30
44851;DHT22;30583;48.714;9.386;2023-04-25T02:36:14;11.50;68.70
44851;DHT22;30583;48.714;9.386;2023-04-25T02:38:40;11.60;68.20
44851;DHT22;30583;48.714;9.386;2023-04-25T02:41:06;11.20;68.30
44851;DHT22;30583;48.714;9.386;2023-04-25T02:43:31;11.40;68.50
44851;DHT22;30583;48.714;9.386;2023-04-25T02:45:57;11.40;68.70
44851;DHT22;30583;48.714;9.386;2023-04-25T02:48:23;11.60;68.20
44851;DHT22;30583;48.714;9.386;2023-04-25T02:50:48;11.70;67.10
44851;DHT22;30583;48.714;9.386;2023-04-25T02:53:14;11.40;68.10
44851;DHT22;30583;48.714;9.386;2023-04-25T02:55:39;11.40;67.80
44851;DHT22;30583;48.714;9.386;2023-04-25T02:58:05;11.40;67.80
44851;DHT22;30583;48.714;9.386;2023-04-25T03:00:31;11.20;67.60
44851;DHT22;30583;48.714;9.386;2023-04-25T03:02:57;11.30;67.50
44851;DHT22;30583;48.714;9.386;2023-04-25T03:05:22;11.40;67.70
44851;DHT22;30583;48.714;9.386;2023-04-25T03:07:48;11.20;67.50
44851;DHT22;30583;48.714;9.386;2023-04-25T03:10:13;10.80;69.80
44851;DHT22;30583;48.714;9.386;2023-04-25T03:12:39;10.90;70.20
44851;DHT22;30583;48.714;9.386;2023-04-25T03:15:05;11.20;69.80
44851;DHT22;30583;48.714;9.386;2023-04-25T03:17:31;11.30;69.20
44851;DHT22;30583;48.714;9.386;2023-04-25T03:19:57;11.20;68.90
44851;DHT22;30583;48.714;9.386;2023-04-25T03:22:23;11.50;68.60
44851;DHT22;30583;48.714;9.386;2023-04-25T03:24:49;11.40;69.20
44851;DHT22;30583;48.714;9.386;2023-04-25T03:27:15;11.00;69.70
44851;DHT22;30583;48.714;9.386;2023-04-25T03:29:41;10.90;69.90
44851;DHT22;30583;48.714;9.386;2023-04-25T03:32:07;10.90;70.60
44851;DHT22;30583;48.714;9.386;2023-04-25T03:34:32;11.10;69.90
44851;DHT22;30583;48.714;9.386;2023-04-25T03:36:58;11.20;69.50
44851;DHT22;30583;48.714;9.386;2023-04-25T03:39:24;11.40;68.80
44851;DHT22;30583;48.714;9.386;2023-04-25T03:41:49;11.40;68.70
44851;DHT22;30583;48.714;9.386;2023-04-25T03:44:15;11.20;69.40
44851;DHT22;30583;48.714;9.386;2023-04-25T03:46:41;11.00;70.40
44851;DHT22;30583;48.714;9.386;2023-04-25T03:49:06;11.00;70.30
44851;DHT22;30583;48.714;9.386;2023-04-25T03:51:32;11.40;69.50
44851;DHT22;30583;48.714;9.386;2023-04-25T03:53:57;11.40;69.10
44851;DHT22;30583;48.714;9.386;2023-04-25T03:56:23;11.10;69.50
44851;DHT22;30583;48.714;9.386;2023-04-25T03:58:49;10.90;70.50
44851;DHT22;30583;48.714;9.386;2023-04-25T04:01:14;11.00;70.50
44851;DHT22;30583;48.714;9.386;2023-04-25T04:03:40;11.00;70.80
44851;DHT22;30583;48.714;9.386;2023-04-25T04:06:06;10.60;71.20
44851;DHT22;30583;48.714;9.386;2023-04-25T04:08:33;10.60;71.60
44851;DHT22;30583;48.714;9.386;2023-04-25T04:10:59;10.70;71.40
44851;DHT22;30583;48.714;9.386;2023-04-25T04:13:26;11.00;70.40
44851;DHT22;30583;48.714;9.386;2023-04-25T04:15:52;11.20;68.80
44851;DHT22;30583;48.714;9.386;2023-04-25T04:18:18;11.10;68.20
44851;DHT22;30583;48.714;9.386;2023-04-25T04:20:44;11.20;69.00
44851;DHT22;30583;48.714;9.386;2023-04-25T04:23:09;11.40;69.30
44851;DHT22;30583;48.714;9.386;2023-04-25T04:25:36;11.20;69.90
44851;DHT22;30583;48.714;9.386;2023-04-25T04:28:02;11.40;70.10
44851;DHT22;30583;48.714;9.386;2023-04-25T04:30:28;11.20;69.70
44851;DHT22;30583;48.714;9.386;2023-04-25T04:32:56;11.20;70.30
44851;DHT22;30583;48.714;9.386;2023-04-25T04:35:23;11.90;71.60
44851;DHT22;30583;48.714;9.386;2023-04-25T04:37:49;12.30;69.60
44851;DHT22;30583;48.714;9.386;2023-04-25T04:40:15;12.70;68.40
44851;DHT22;30583;48.714;9.386;2023-04-25T04:42:42;13.00;67.80
44851;DHT22;30583;48.714;9.386;2023-04-25T04:45:09;12.60;65.90
44851;DHT22;30583;48.714;9.386;2023-04-25T04:47:35;12.40;68.10
44851;DHT22;30583;48.714;9.386;2023-04-25T04:50:02;12.40;68.90
44851;DHT22;30583;48.714;9.386;2023-04-25T04:52:28;13.00;66.60
44851;DHT22;30583;48.714;9.386;2023-04-25T04:54:53;13.20;66.00
44851;DHT22;30583;48.714;9.386;2023-04-25T04:57:19;13.30;66.80
44851;DHT22;30583;48.714;9.386;2023-04-25T04:59:45;13.20;64.50
44851;DHT22;30583;48.714;9.386;2023-04-25T05:02:11;13.20;65.80
44851;DHT22;30583;48.714;9.386;2023-04-25T05:04:36;13.00;65.90
44851;DHT22;30583;48.714;9.386;2023-04-25T05:07:02;13.10;66.30
44851;DHT22;30583;48.714;9.386;2023-04-25T05:09:27;13.40;65.70
44851;DHT22;30583;48.714;9.386;2023-04-25T05:11:53;13.20;64.20
44851;DHT22;30583;48.714;9.386;2023-04-25T05:14:19;13.20;66.50
44851;DHT22;30583;48.714;9.386;2023-04-25T05:16:44;13.10;64.30
44851;DHT22;30583;48.714;9.386;2023-04-25T05:19:10;13.40;65.90
44851;DHT22;30583;48.714;9.386;2023-04-25T05:21:36;13.20;66.90
44851;DHT22;30583;48.714;9.386;2023-04-25T05:24:01;13.90;65.30
44851;DHT22;30583;48.714;9.386;2023-04-25T05:26:27;14.00;65.40
44851;DHT22;30583;48.714;9.386;2023-04-25T05:28:57;14.00;64.70
44851;DHT22;30583;48.714;9.386;2023-04-25T05:31:22;13.60;64.60
44851;DHT22;30583;48.714;9.386;2023-04-25T05:33:48;13.50;64.50
44851;DHT22;30583;48.714;9.386;2023-04-25T05:36:13;13.60;64.60
44851;DHT22;30583;48.714;9.386;2023-04-25T05:38:39;13.70;64.40
44851;DHT22;30583;48.714;9.386;2023-04-25T05:41:04;13.70;63.80
44851;DHT22;30583;48.714;9.386;2023-04-25T05:43:30;13.50;62.90
44851;DHT22;30583;48.714;9.386;2023-04-25T05:45:56;13.00;64.30
44851;DHT22;30583;48.714;9.386;2023-04-25T05:48:21;12.90;65.90
44851;DHT22;30583;48.714;9.386;2023-04-25T05:50:47;12.70;64.00
44851;DHT22;30583;48.714;9.386;2023-04-25T05:53:13;12.40;64.90
44851;DHT22;30583;48.714;9.386;2023-04-25T05:55:38;12.50;66.00
44851;DHT22;30583;48.714;9.386;2023-04-25T05:58:05;12.10;64.10
44851;DHT22;30583;48.714;9.386;2023-04-25T06:00:31;11.30;66.30
44851;DHT22;30583;48.714;9.386;2023-04-25T06:02:57;11.20;67.40
44851;DHT22;30583;48.714;9.386;2023-04-25T06:05:22;10.70;68.50
44851;DHT22;30583;48.714;9.386;2023-04-25T06:07:48;10.60;69.30
44851;DHT22;30583;48.714;9.386;2023-04-25T06:10:14;10.90;68.20
44851;DHT22;30583;48.714;9.386;2023-04-25T06:12:40;10.60;69.60
44851;DHT22;30583;48.714;9.386;2023-04-25T06:15:06;10.50;69.60
44851;DHT22;30583;48.714;9.386;2023-04-25T06:17:32;10.80;68.60
44851;DHT22;30583;48.714;9.386;2023-04-25T06:19:58;10.70;68.50
44851;DHT22;30583;48.714;9.386;2023-04-25T06:22:24;10.60;69.40
44851;DHT22;30583;48.714;9.386;2023-04-25T06:24:49;10.50;69.40
44851;DHT22;30583;48.714;9.386;2023-04-25T06:27:15;10.80;68.20
44851;DHT22;30583;48.714;9.386;2023-04-25T06:29:40;11.10;67.60
44851;DHT22;30583;48.714;9.386;2023-04-25T06:32:06;11.20;66.50
44851;DHT22;30583;48.714;9.386;2023-04-25T06:34:31;11.40;65.80
44851;DHT22;30583;48.714;9.386;2023-04-25T06:36:57;11.20;65.60
44851;DHT22;30583;48.714;9.386;2023-04-25T06:39:23;11.30;66.20
44851;DHT22;30583;48.714;9.386;2023-04-25T06:41:50;11.60;66.50
44851;DHT22;30583;48.714;9.386;2023-04-25T06:44:15;11.70;65.30
44851;DHT22;30583;48.714;9.386;2023-04-25T06:46:41;11.60;65.00
44851;DHT22;30583;48.714;9.386;2023-04-25T06:49:07;11.70;63.60
44851;DHT22;30583;48.714;9.386;2023-04-25T06:51:32;11.60;63.40
44851;DHT22;30583;48.714;9.386;2023-04-25T06:53:58;11.40;63.00
44851;DHT22;30583;48.714;9.386;2023-04-25T06:56:24;11.30;63.50
44851;DHT22;30583;48.714;9.386;2023-04-25T06:58:49;11.40;64.00
44851;DHT22;30583;48.714;9.386;2023-04-25T07:01:15;11.50;64.50
44851;DHT22;30583;48.714;9.386;2023-04-25T07:03:40;11.10;64.90
44851;DHT22;30583;48.714;9.386;2023-04-25T07:06:06;11.30;65.00
44851;DHT22;30583;48.714;9.386;2023-04-25T07:08:32;11.30;64.70
44851;DHT22;30583;48.714;9.386;2023-04-25T07:10:58;11.60;64.90
44851;DHT22;30583;48.714;9.386;2023-04-25T07:13:23;11.60;63.60
44851;DHT22;30583;48.714;9.386;2023-04-25T07:15:49;11.30;65.30
44851;DHT22;30583;48.714;9.386;2023-04-25T07:18:14;11.70;64.30
44851;DHT22;30583;48.714;9.386;2023-04-25T07:20:40;11.60;63.90
44851;DHT22;30583;48.714;9.386;2023-04-25T07:23:06;11.40;64.60
44851;DHT22;30583;48.714;9.386;2023-04-25T07:25:32;11.60;64.30
44851;DHT22;30583;48.714;9.386;2023-04-25T07:27:57;11.40;64.30
44851;DHT22;30583;48.714;9.386;2023-04-25T07:30:23;11.60;65.30
44851;DHT22;30583;48.714;9.386;2023-04-25T07:32:49;11.80;63.90
44851;DHT22;30583;48.714;9.386;2023-04-25T07:35:15;11.70;65.10
44851;DHT22;30583;48.714;9.386;2023-04-25T07:37:41;11.70;64.70
44851;DHT22;30583;48.714;9.386;2023-04-25T07:40:07;11.30;64.90
44851;DHT22;30583;48.714;9.386;2023-04-25T07:42:34;11.40;65.10
44851;DHT22;30583;48.714;9.386;2023-04-25T07:45:00;11.40;65.50
44851;DHT22;30583;48.714;9.386;2023-04-25T07:47:26;11.20;65.70
44851;DHT22;30583;48.714;9.386;2023-04-25T07:49:52;11.20;66.60
44851;DHT22;30583;48.714;9.386;2023-04-25T07:52:17;11.30;65.50
44851;DHT22;30583;48.714;9.386;2023-04-25T07:54:43;11.30;66.90
44851;DHT22;30583;48.714;9.386;2023-04-25T07:57:09;11.20;66.70
44851;DHT22;30583;48.714;9.386;2023-04-25T07:59:34;11.30;67.10
44851;DHT22;30583;48.714;9.386;2023-04-25T08:02:01;11.60;67.50
44851;DHT22;30583;48.714;9.386;2023-04-25T08:04:26;11.50;67.70
44851;DHT22;30583;48.714;9.386;2023-04-25T08:06:52;11.60;69.00
44851;DHT22;30583;48.714;9.386;2023-04-25T08:09:19;11.50;68.90
44851;DHT22;30583;48.714;9.386;2023-04-25T08:11:45;11.30;69.40
44851;DHT22;30583;48.714;9.386;2023-04-25T08:14:11;11.80;70.90
44851;DHT22;30583;48.714;9.386;2023-04-25T08:16:37;12.00;67.80
44851;DHT22;30583;48.714;9.386;2023-04-25T08:19:03;12.80;71.00
44851;DHT22;30583;48.714;9.386;2023-04-25T08:21:28;12.70;68.50
44851;DHT22;30583;48.714;9.386;2023-04-25T08:23:54;12.70;69.60
44851;DHT22;30583;48.714;9.386;2023-04-25T08:26:19;12.30;66.80
44851;DHT22;30583;48.714;9.386;2023-04-25T08:28:46;11.60;69.50
44851;DHT22;30583;48.714;9.386;2023-04-25T08:31:12;10.80;71.40
44851;DHT22;30583;48.714;9.386;2023-04-25T08:33:37;10.80;72.00
44851;DHT22;30583;48.714;9.386;2023-04-25T08:36:03;10.70;72.40
44851;DHT22;30583;48.714;9.386;2023-04-25T08:38:29;10.40;72.40
44851;DHT22;30583;48.714;9.386;2023-04-25T08:40:56;10.20;73.40
44851;DHT22;30583;48.714;9.386;2023-04-25T08:43:25;10.20;73.40
44851;DHT22;30583;48.714;9.386;2023-04-25T08:45:52;10.20;74.00
44851;DHT22;30583;48.714;9.386;2023-04-25T08:48:19;10.40;73.90
44851;DHT22;30583;48.714;9.386;2023-04-25T08:50:51;10.20;74.60
44851;DHT22;30583;48.714;9.386;2023-04-25T08:53:22;10.10;75.00
44851;DHT22;30583;48.714;9.386;2023-04-25T08:55:50;9.90;75.70
44851;DHT22;30583;48.714;9.386;2023-04-25T08:58:18;9.60;77.00
44851;DHT22;30583;48.714;9.386;2023-04-25T09:00:46;9.40;76.50
44851;DHT22;30583;48.714;9.386;2023-04-25T09:03:12;9.60;76.20
44851;DHT22;30583;48.714;9.386;2023-04-25T09:05:39;10.10;75.20
44851;DHT22;30583;48.714;9.386;2023-04-25T09:08:05;10.10;74.90
44851;DHT22;30583;48.714;9.386;2023-04-25T09:10:32;9.80;75.50
44851;DHT22;30583;48.714;9.386;2023-04-25T09:15:31;10.40;74.80
44851;DHT22;30583;48.714;9.386;2023-04-25T09:17:57;9.70;75.20
44851;DHT22;30583;48.714;9.386;2023-04-25T09:20:23;10.00;75.60
44851;DHT22;30583;48.714;9.386;2023-04-25T09:23:01;10.50;76.60
44851;DHT22;30583;48.714;9.386;2023-04-25T09:25:34;10.30;75.10
44851;DHT22;30583;48.714;9.386;2023-04-25T09:28:03;10.20;75.40
44851;DHT22;30583;48.714;9.386;2023-04-25T09:30:31;10.20;75.30
44851;DHT22;30583;48.714;9.386;2023-04-25T09:32:57;10.40;75.70
44851;DHT22;30583;48.714;9.386;2023-04-25T09:35:28;10.60;74.80
44851;DHT22;30583;48.714;9.386;2023-04-25T09:37:55;10.70;75.20
44851;DHT22;30583;48.714;9.386;2023-04-25T09:40:21;10.30;75.30
44851;DHT22;30583;48.714;9.386;2023-04-25T09:42:47;10.60;74.90
44851;DHT22;30583;48.714;9.386;2023-04-25T09:45:13;10.20;75.20
44851;DHT22;30583;48.714;9.386;2023-04-25T09:47:41;10.30;75.30
44851;DHT22;30583;48.714;9.386;2023-04-25T09:50:16;10.10;75.60
44851;DHT22;30583;48.714;9.386;2023-04-25T09:52:44;10.00;76.00
44851;DHT22;30583;48.714;9.386;2023-04-25T09:55:09;10.40;76.60
44851;DHT22;30583;48.714;9.386;2023-04-25T09:57:35;10.40;75.20
44851;DHT22;30583;48.714;9.386;2023-04-25T10:00:05;10.20;74.90
44851;DHT22;30583;48.714;9.386;2023-04-25T10:02:36;10.20;75.40
44851;DHT22;30583;48.714;9.386;2023-04-25T10:05:05;10.40;75.10
44851;DHT22;30583;48.714;9.386;2023-04-25T10:07:33;10.40;74.60
44851;DHT22;30583;48.714;9.386;2023-04-25T10:10:04;9.90;75.30
44851;DHT22;30583;48.714;9.386;2023-04-25T10:12:31;9.90;77.30
44851;DHT22;30583;48.714;9.386;2023-04-25T10:14:58;10.20;77.40
44851;DHT22;30583;48.714;9.386;2023-04-25T10:17:24;10.60;76.60
44851;DHT22;30583;48.714;9.386;2023-04-25T10:19:52;10.20;75.10
44851;DHT22;30583;48.714;9.386;2023-04-25T10:22:26;10.10;75.70
44851;DHT22;30583;48.714;9.386;2023-04-25T10:24:55;10.00;75.80
44851;DHT22;30583;48.714;9.386;2023-04-25T10:27:22;10.20;75.10
44851;DHT22;30583;48.714;9.386;2023-04-25T10:30:01;10.20;75.10
44851;DHT22;30583;48.714;9.386;2023-04-25T10:32:30;10.10;76.10
44851;DHT22;30583;48.714;9.386;2023-04-25T10:34:56;9.80;75.50
44851;DHT22;30583;48.714;9.386;2023-04-25T10:37:22;10.10;77.00
44851;DHT22;30583;48.714;9.386;2023-04-25T10:39:49;10.20;76.40
44851;DHT22;30583;48.714;9.386;2023-04-25T10:42:14;10.50;76.10
44851;DHT22;30583;48.714;9.386;2023-04-25T10:44:40;10.80;77.00
44851;DHT22;30583;48.714;9.386;2023-04-25T10:47:35;11.70;73.70
44851;DHT22;30583;48.714;9.386;2023-04-25T10:50:07;11.70;72.40
44851;DHT22;30583;48.714;9.386;2023-04-25T10:52:33;11.80;73.10
44851;DHT22;30583;48.714;9.386;2023-04-25T10:54:59;11.80;70.60
44851;DHT22;30583;48.714;9.386;2023-04-25T11:00:00;11.50;71.30
44851;DHT22;30583;48.714;9.386;2023-04-25T11:02:27;11.40;71.90
44851;DHT22;30583;48.714;9.386;2023-04-25T11:04:54;11.50;73.60
44851;DHT22;30583;48.714;9.386;2023-04-25T11:07:30;11.60;72.70
44851;DHT22;30583;48.714;9.386;2023-04-25T11:10:02;11.40;70.80
44851;DHT22;30583;48.714;9.386;2023-04-25T11:12:30;10.90;73.20
44851;DHT22;30583;48.714;9.386;2023-04-25T11:15:06;10.10;72.30
44851;DHT22;30583;48.714;9.386;2023-04-25T11:17:32;9.80;73.90
44851;DHT22;30583;48.714;9.386;2023-04-25T11:19:58;9.90;75.90
44851;DHT22;30583;48.714;9.386;2023-04-25T11:22:24;9.50;75.30
44851;DHT22;30583;48.714;9.386;2023-04-25T11:24:50;9.60;79.20
44851;DHT22;30583;48.714;9.386;2023-04-25T11:27:16;10.80;74.80
44851;DHT22;30583;48.714;9.386;2023-04-25T11:29:42;11.90;74.50
44851;DHT22;30583;48.714;9.386;2023-04-25T11:32:08;12.20;72.40
44851;DHT22;30583;48.714;9.386;2023-04-25T11:34:33;11.90;69.90
44851;DHT22;30583;48.714;9.386;2023-04-25T11:37:00;11.10;70.50
44851;DHT22;30583;48.714;9.386;2023-04-25T11:39:27;10.70;72.40
44851;DHT22;30583;48.714;9.386;2023-04-25T11:41:54;10.60;72.90
44851;DHT22;30583;48.714;9.386;2023-04-25T11:44:20;10.50;73.70
44851;DHT22;30583;48.714;9.386;2023-04-25T11:46:47;10.20;73.80
44851;DHT22;30583;48.714;9.386;2023-04-25T11:49:13;10.40;73.60
44851;DHT22;30583;48.714;9.386;2023-04-25T11:51:42;10.30;73.00
44851;DHT22;30583;48.714;9.386;2023-04-25T11:54:09;10.40;73.30
44851;DHT22;30583;48.714;9.386;2023-04-25T11:56:35;10.50;73.00
44851;DHT22;30583;48.714;9.386;2023-04-25T11:59:03;11.30;76.20
44851;DHT22;30583;48.714;9.386;2023-04-25T12:01:33;11.00;74.90
44851;DHT22;30583;48.714;9.386;2023-04-25T12:04:14;11.30;69.60
44851;DHT22;30583;48.714;9.386;2023-04-25T12:06:41;13.30;72.50
44851;DHT22;30583;48.714;9.386;2023-04-25T12:09:11;13.90;68.30
44851;DHT22;30583;48.714;9.386;2023-04-25T12:11:46;13.80;65.60
44851;DHT22;30583;48.714;9.386;2023-04-25T12:14:32;13.40;65.00
44851;DHT22;30583;48.714;9.386;2023-04-25T12:17:00;12.70;64.70
44851;DHT22;30583;48.714;9.386;2023-04-25T12:19:31;11.70;67.00
44851;DHT22;30583;48.714;9.386;2023-04-25T12:21:59;11.30;68.00
44851;DHT22;30583;48.714;9.386;2023-04-25T12:24:26;11.10;69.60
44851;DHT22;30583;48.714;9.386;2023-04-25T12:27:02;10.90;68.80
44851;DHT22;30583;48.714;9.386;2023-04-25T12:29:30;10.50;68.60
44851;DHT22;30583;48.714;9.386;2023-04-25T12:31:56;10.50;69.30
44851;DHT22;30583;48.714;9.386;2023-04-25T12:34:23;10.30;69.90
44851;DHT22;30583;48.714;9.386;2023-04-25T12:36:49;9.80;70.00
44851;DHT22;30583;48.714;9.386;2023-04-25T12:39:17;10.10;70.70
44851;DHT22;30583;48.714;9.386;2023-04-25T12:41:43;10.20;70.00
44851;DHT22;30583;48.714;9.386;2023-04-25T12:44:09;10.80;71.60
44851;DHT22;30583;48.714;9.386;2023-04-25T12:46:35;10.20;70.70
44851;DHT22;30583;48.714;9.386;2023-04-25T12:49:01;10.50;70.60
44851;DHT22;30583;48.714;9.386;2023-04-25T12:51:28;11.00;70.40
44851;DHT22;30583;48.714;9.386;2023-04-25T12:53:54;10.90;70.70
44851;DHT22;30583;48.714;9.386;2023-04-25T12:56:20;10.70;68.70
44851;DHT22;30583;48.714;9.386;2023-04-25T12:58:46;10.20;71.20
44851;DHT22;30583;48.714;9.386;2023-04-25T13:01:13;10.60;71.30
44851;DHT22;30583;48.714;9.386;2023-04-25T13:03:39;10.60;71.00
44851;DHT22;30583;48.714;9.386;2023-04-25T13:06:06;10.70;70.30
44851;DHT22;30583;48.714;9.386;2023-04-25T13:08:32;10.60;69.30
44851;DHT22;30583;48.714;9.386;2023-04-25T13:10:58;10.60;72.30
44851;DHT22;30583;48.714;9.386;2023-04-25T13:13:23;10.70;70.20
44851;DHT22;30583;48.714;9.386;2023-04-25T13:15:49;10.80;72.10
44851;DHT22;30583;48.714;9.386;2023-04-25T13:18:15;11.00;71.80
44851;DHT22;30583;48.714;9.386;2023-04-25T13:20:40;11.20;71.90
44851;DHT22;30583;48.714;9.386;2023-04-25T13:23:06;11.40;70.70
44851;DHT22;30583;48.714;9.386;2023-04-25T13:25:32;11.20;70.20
44851;DHT22;30583;48.714;9.386;2023-04-25T13:27:57;11.20;70.50
44851;DHT22;30583;48.714;9.386;2023-04-25T13:30:23;11.40;69.30
44851;DHT22;30583;48.714;9.386;2023-04-25T13:32:48;11.30;69.50
44851;DHT22;30583;48.714;9.386;2023-04-25T13:35:14;11.40;66.60
44851;DHT22;30583;48.714;9.386;2023-04-25T13:37:40;11.60;68.00
44851;DHT22;30583;48.714;9.386;2023-04-25T13:40:10;12.10;66.20
44851;DHT22;30583;48.714;9.386;2023-04-25T13:42:36;12.50;69.30
44851;DHT22;30583;48.714;9.386;2023-04-25T13:45:03;12.80;68.10
44851;DHT22;30583;48.714;9.386;2023-04-25T13:47:30;12.80;64.60
44851;DHT22;30583;48.714;9.386;2023-04-25T13:49:56;13.20;67.30
44851;DHT22;30583;48.714;9.386;2023-04-25T13:52:22;12.30;65.90
44851;DHT22;30583;48.714;9.386;2023-04-25T13:54:49;12.20;66.50
44851;DHT22;30583;48.714;9.386;2023-04-25T13:57:15;12.60;66.10
44851;DHT22;30583;48.714;9.386;2023-04-25T13:59:41;12.50;67.10
44851;DHT22;30583;48.714;9.386;2023-04-25T14:02:07;11.90;65.50
44851;DHT22;30583;48.714;9.386;2023-04-25T14:04:32;11.80;65.70
44851;DHT22;30583;48.714;9.386;2023-04-25T14:06:58;11.80;66.50
44851;DHT22;30583;48.714;9.386;2023-04-25T14:09:24;11.80;67.00
44851;DHT22;30583;48.714;9.386;2023-04-25T14:11:54;12.30;65.20
44851;DHT22;30583;48.714;9.386;2023-04-25T14:14:21;12.40;65.40
44851;DHT22;30583;48.714;9.386;2023-04-25T14:16:47;12.80;65.90
44851;DHT22;30583;48.714;9.386;2023-04-25T14:19:17;12.40;62.70
44851;DHT22;30583;48.714;9.386;2023-04-25T14:21:43;12.50;64.20
44851;DHT22;30583;48.714;9.386;2023-04-25T14:24:09;12.30;63.80
44851;DHT22;30583;48.714;9.386;2023-04-25T14:26:36;12.30;66.40
44851;DHT22;30583;48.714;9.386;2023-04-25T14:29:03;12.60;65.50
44851;DHT22;30583;48.714;9.386;2023-04-25T14:31:29;12.70;67.80
44851;DHT22;30583;48.714;9.386;2023-04-25T14:33:55;12.40;64.70
44851;DHT22;30583;48.714;9.386;2023-04-25T14:36:20;12.50;65.10
44851;DHT22;30583;48.714;9.386;2023-04-25T14:38:46;13.00;64.20
44851;DHT22;30583;48.714;9.386;2023-04-25T14:41:12;12.40;64.70
44851;DHT22;30583;48.714;9.386;2023-04-25T14:43:37;12.50;67.20
44851;DHT22;30583;48.714;9.386;2023-04-25T14:46:05;12.40;66.40
44851;DHT22;30583;48.714;9.386;2023-04-25T14:48:31;12.90;68.30
44851;DHT22;30583;48.714;9.386;2023-04-25T14:50:57;13.20;64.50
44851;DHT22;30583;48.714;9.386;2023-04-25T14:53:23;13.00;65.50
44851;DHT22;30583;48.714;9.386;2023-04-25T14:55:48;13.30;67.50
44851;DHT22;30583;48.714;9.386;2023-04-25T14:58:14;13.50;62.40
44851;DHT22;30583;48.714;9.386;2023-04-25T15:00:40;13.30;66.10
44851;DHT22;30583;48.714;9.386;2023-04-25T15:03:06;13.00;63.20
44851;DHT22;30583;48.714;9.386;2023-04-25T15:05:33;12.80;63.20
44851;DHT22;30583;48.714;9.386;2023-04-25T15:07:59;12.80;64.50
44851;DHT22;30583;48.714;9.386;2023-04-25T15:10:25;13.00;63.20
44851;DHT22;30583;48.714;9.386;2023-04-25T15:12:51;12.60;63.10
44851;DHT22;30583;48.714;9.386;2023-04-25T15:15:18;12.50;64.20
44851;DHT22;30583;48.714;9.386;2023-04-25T15:17:44;12.70;63.30
44851;DHT22;30583;48.714;9.386;2023-04-25T15:20:11;12.70;62.30
44851;DHT22;30583;48.714;9.386;2023-04-25T15:22:41;12.40;64.10
44851;DHT22;30583;48.714;9.386;2023-04-25T15:25:08;13.20;62.20
44851;DHT22;30583;48.714;9.386;2023-04-25T15:27:34;13.50;61.00
44851;DHT22;30583;48.714;9.386;2023-04-25T15:30:05;13.20;62.20
44851;DHT22;30583;48.714;9.386;2023-04-25T15:32:32;13.50;62.70
44851;DHT22;30583;48.714;9.386;2023-04-25T15:34:58;13.00;60.20